Flugunfall 08 MAR 2020 einer Boeing 767-3Q8ER N477AX - Shannon Airport (SNN)
ASN logo
 

Status:Information is only available from news, social media or unofficial sources
Datum:Sonntag 8 Mrz 2020
Zeit:19:55
Flugzeugtyp:Silhouette image of generic B763 model; specific model in this crash may look slightly different
Boeing 767-3Q8ER
Fluggesellschaft:Omni Air International
Kennzeichen: N477AX
Werknummer: 29390/870
Baujahr: 2002-02-10 (18 years 1 months)
Triebwerk: 2 General Electric CF6-80C2B6F
Besatzung:Todesopfer: 0 / Insassen: 11
Fluggäste:Todesopfer: 0 / Insassen: 170
Gesamt:Todesopfer: 0 / Insassen: 181
Sachschaden: schwer beschädigt
Konsequenzen: Repaired
Unfallort:Shannon Airport (SNN) (   Irland)
Flugphase: Landung (LDG)
Betriebsart:Internationaler außerplanmäßiger Passagierflug
Flug von:Bangor International Airport, ME (BGR/KBGR), USA
Flug nach:Shannon Airport (SNN/EINN), Irland
Flugnummer:OY346
Unfallbericht:
Omni Air flight 346, a Boeing 767-300ER, bounced and touched down hard on runway 24 at Shannon Airport, Ireland.
There were no injuries and airplane suffered creases all around the forward fuselage.

Accident investigation:

Investigating agency: AAIU Ireland
Status: Investigation ongoing

Informationsquelle:
» thejournal.ie

METAR Weather report:
19:00 UTC / 19:00 local time:
EINN 081900Z 27018G32KT 9999 FEW009 FEW020CB 07/03 Q1004 TEMPO 4000 SHRA

21:00 UTC / 21:00 local time:
EINN 082100Z 27022KT 9999 FEW009 BKN018CB 06/04 Q1006 TEMPO 4000 SHRA


Fotos

Add your photo of this accident or aircraft

Map
This map shows the airport of departure and the intended destination of the flight. The line between the airports does not display the exact flight path.
Distance from Bangor International Airport, ME to Shannon Airport as the crow flies is 4316 km (2697 miles).
Accident location: Exact; deduced from official accident report.

This information is not presented as the Flight Safety Foundation or the Aviation Safety Network’s opinion as to the cause of the accident. It is preliminary and is based on the facts as they are known at this time.
languages: languages

Share

The Aviation Safety Network is an exclusive service provided by:
Quick Links:

CONNECT WITH US: FSF on social media FSF Facebook FSF Twitter FSF Youtube FSF LinkedIn FSF Instagram

©2023 Flight Safety Foundation

1920 Ballenger Av, 4th Fl.
Alexandria, Virginia 22314
www.FlightSafety.org